Time;durP1;ratioP1;P1;durP2;ratioP2;P2;SDS_P1;SDS_P2;PMS_P1;PMS_P2;Temp;Humidity;BMP_temperature;BMP_pressure;BME280_temperature;BME280_humidity;BME280_pressure;Samples;Min_cycle;Max_cycle;Signal;HPM_P1;HPM_P2
2023/09/11 00:00:35;;;;;;;17.90;11.75;;;;;;;22.65;81.74;101272.34;5006270;28;20136;-83
2023/09/11 00:03:02;;;;;;;18.95;12.23;;;;;;;22.64;81.70;101261.72;5008530;28;20124;-83
2023/09/11 00:05:30;;;;;;;22.73;12.65;;;;;;;22.62;81.74;101259.16;5006264;28;20060;-82
2023/09/11 00:07:57;;;;;;;20.83;11.95;;;;;;;22.61;82.36;101256.56;5007842;28;20034;-82
2023/09/11 00:10:25;;;;;;;17.30;12.48;;;;;;;22.60;82.39;101246.81;5006999;28;20129;-82
2023/09/11 00:12:52;;;;;;;20.25;12.48;;;;;;;22.57;82.48;101253.28;5005810;28;20412;-82
2023/09/11 00:15:19;;;;;;;19.00;12.55;;;;;;;22.54;82.58;101255.34;5007537;28;20474;-81
2023/09/11 00:17:46;;;;;;;20.20;12.93;;;;;;;22.48;82.85;101252.16;5005733;28;20472;-81
2023/09/11 00:20:13;;;;;;;20.52;13.32;;;;;;;22.45;82.38;101248.81;5007224;28;20038;-81
2023/09/11 00:22:40;;;;;;;20.55;13.48;;;;;;;22.42;82.68;101246.38;5006871;28;20798;-81
2023/09/11 00:25:08;;;;;;;19.52;12.88;;;;;;;22.39;82.98;101242.03;5008162;28;20311;-81
2023/09/11 00:27:36;;;;;;;20.30;12.18;;;;;;;22.38;82.90;101244.84;5007532;28;20069;-82
2023/09/11 00:30:06;;;;;;;18.60;12.23;;;;;;;22.34;83.17;101242.38;5005583;28;20061;-80
2023/09/11 00:32:33;;;;;;;18.73;13.30;;;;;;;22.32;83.09;101254.22;5005520;28;20505;-81
2023/09/11 00:35:01;;;;;;;18.67;12.60;;;;;;;22.29;82.83;101246.38;4978823;28;20104;-82
2023/09/11 00:37:28;;;;;;;21.05;12.82;;;;;;;22.25;83.04;101242.22;5004646;28;20389;-81
2023/09/11 00:39:55;;;;;;;18.92;13.43;;;;;;;22.23;83.26;101242.31;5014224;28;20787;-80
2023/09/11 00:42:22;;;;;;;21.77;13.10;;;;;;;22.23;83.01;101241.47;5006244;28;20046;-80
2023/09/11 00:44:49;;;;;;;18.70;13.15;;;;;;;22.20;82.89;101231.81;5005470;28;20082;-81
2023/09/11 00:47:16;;;;;;;18.25;12.68;;;;;;;22.19;83.17;101239.00;4998783;28;20101;-81
2023/09/11 00:49:44;;;;;;;19.33;13.52;;;;;;;22.15;83.41;101234.84;5003406;28;20133;-81
2023/09/11 00:52:12;;;;;;;22.90;13.95;;;;;;;22.12;83.65;101235.03;5002492;28;20117;-80
2023/09/11 00:54:39;;;;;;;19.58;13.20;;;;;;;22.12;83.65;101229.69;5001404;28;20042;-79
2023/09/11 00:57:07;;;;;;;19.63;13.38;;;;;;;22.10;83.73;101230.78;4999657;28;20153;-79
2023/09/11 00:59:34;;;;;;;16.95;12.75;;;;;;;22.08;84.25;101224.66;5001478;28;20073;-80
2023/09/11 01:02:02;;;;;;;22.30;13.55;;;;;;;22.06;84.09;101222.09;5001657;28;20046;-80
2023/09/11 01:04:30;;;;;;;20.83;13.43;;;;;;;22.01;84.39;101225.09;5004334;28;20123;-80
2023/09/11 01:06:57;;;;;;;17.80;12.48;;;;;;;21.98;84.17;101217.28;5004744;28;20054;-80
2023/09/11 01:09:24;;;;;;;20.55;13.15;;;;;;;21.96;84.60;101219.19;5003106;28;20042;-79
2023/09/11 01:11:51;;;;;;;18.95;13.60;;;;;;;21.94;84.39;101210.41;4986826;28;20123;-79
2023/09/11 01:14:19;;;;;;;22.38;13.15;;;;;;;21.92;84.81;101209.69;5000233;28;20129;-79
2023/09/11 01:17:03;;;;;;;16.40;12.15;;;;;;;21.87;85.24;101212.66;5003713;28;20053;-78
2023/09/11 01:19:54;;;;;;;22.35;14.55;;;;;;;21.86;85.14;101210.09;4996090;28;20096;-80
2023/09/11 01:22:30;;;;;;;19.42;13.57;;;;;;;21.83;85.17;101213.00;5030850;28;20497;-79
2023/09/11 01:25:24;;;;;;;18.65;14.00;;;;;;;21.79;85.03;101215.06;5033952;28;20613;-80
2023/09/11 01:28:16;;;;;;;20.05;13.65;;;;;;;21.74;85.46;101219.91;5002676;28;20100;-78
2023/09/11 01:30:46;;;;;;;20.65;14.35;;;;;;;21.70;85.18;101216.59;5000559;28;20372;-80
2023/09/11 01:33:14;;;;;;;21.30;13.98;;;;;;;21.67;85.40;101214.13;5035430;28;20033;-79
2023/09/11 01:35:41;;;;;;;23.00;15.73;;;;;;;21.64;85.22;101214.31;5003598;28;20049;-78
2023/09/11 01:38:08;;;;;;;19.35;13.93;;;;;;;21.59;85.90;101216.50;5001304;28;21883;-79
2023/09/11 01:40:40;;;;;;;17.98;14.07;;;;;;;21.54;85.73;101211.44;5004176;28;20077;-78
2023/09/11 01:43:11;;;;;;;20.73;14.75;;;;;;;21.52;86.55;101216.03;5003189;28;20033;-78
2023/09/11 01:45:40;;;;;;;17.63;13.35;;;;;;;21.48;86.12;101217.22;5004267;28;20454;-78
2023/09/11 01:48:09;;;;;;;22.17;15.02;;;;;;;21.46;86.64;101219.16;5017382;28;20057;-77
2023/09/11 01:50:40;;;;;;;24.65;14.52;;;;;;;21.41;86.86;101211.44;5001567;28;20095;-78
2023/09/11 01:53:08;;;;;;;21.83;14.52;;;;;;;21.37;86.81;101207.25;5020499;28;20073;-77
2023/09/11 01:55:35;;;;;;;21.05;14.57;;;;;;;21.35;86.84;101214.53;5004037;28;20046;-77
2023/09/11 01:58:03;;;;;;;21.40;13.70;;;;;;;21.30;87.13;101208.66;5000266;28;20054;-77
2023/09/11 02:00:30;;;;;;;22.92;15.27;;;;;;;21.28;87.05;101210.59;5020163;28;20046;-78
2023/09/11 02:02:58;;;;;;;18.98;14.43;;;;;;;21.25;87.54;101202.75;5004236;28;20046;-78
2023/09/11 02:05:25;;;;;;;22.85;14.23;;;;;;;21.23;87.26;101208.22;5003311;28;20044;-78
2023/09/11 02:07:52;;;;;;;23.05;15.63;;;;;;;21.22;87.52;101197.59;5004053;28;20076;-78
2023/09/11 02:10:19;;;;;;;22.42;15.27;;;;;;;21.19;87.79;101204.03;5003339;28;20649;-78
2023/09/11 02:12:46;;;;;;;23.92;15.27;;;;;;;21.17;87.85;101203.28;5006192;28;20070;-78
2023/09/11 02:15:13;;;;;;;20.42;15.38;;;;;;;21.16;87.92;101209.63;4996149;28;20042;-78
2023/09/11 02:17:41;;;;;;;19.73;14.80;;;;;;;21.15;88.17;101204.34;5004549;28;20050;-78
2023/09/11 02:20:08;;;;;;;23.60;15.25;;;;;;;21.13;88.01;101198.22;5007695;28;20120;-78
2023/09/11 02:22:35;;;;;;;24.42;15.73;;;;;;;21.10;88.02;101200.19;4994459;28;20029;-78
2023/09/11 02:25:03;;;;;;;19.75;15.02;;;;;;;21.08;88.23;101196.75;5002762;28;20038;-78
2023/09/11 02:27:30;;;;;;;21.90;14.75;;;;;;;21.06;88.44;101189.78;5018454;28;20513;-78
2023/09/11 02:29:57;;;;;;;22.08;14.65;;;;;;;21.01;88.95;101195.44;5004997;28;20053;-78
2023/09/11 02:32:26;;;;;;;18.80;14.32;;;;;;;20.97;89.02;101198.44;5002718;28;20913;-78
2023/09/11 02:34:53;;;;;;;22.70;14.85;;;;;;;20.92;89.16;101191.59;5012129;28;20040;-78
2023/09/11 02:37:21;;;;;;;22.95;15.38;;;;;;;20.90;89.24;101192.66;4999921;28;20756;-79
2023/09/11 02:39:48;;;;;;;19.80;15.18;;;;;;;20.85;89.57;101194.78;5005858;28;20034;-78
2023/09/11 02:42:15;;;;;;;22.00;15.77;;;;;;;20.81;89.63;101195.97;5001972;28;20030;-77
2023/09/11 02:44:43;;;;;;;23.13;15.55;;;;;;;20.76;89.49;101190.91;4998452;28;20493;-78
2023/09/11 02:47:10;;;;;;;20.15;15.45;;;;;;;20.70;90.04;101183.25;5003059;28;20541;-78
2023/09/11 02:49:37;;;;;;;22.67;15.02;;;;;;;20.67;90.01;101186.13;5002801;28;20046;-78
2023/09/11 02:52:04;;;;;;;24.60;14.73;;;;;;;20.62;90.21;101187.31;4998319;28;20463;-78
2023/09/11 02:54:31;;;;;;;21.77;14.85;;;;;;;20.57;90.82;101177.88;5004699;28;20141;-79
2023/09/11 02:56:58;;;;;;;23.70;14.80;;;;;;;20.53;90.61;101174.56;5003104;28;20104;-79
2023/09/11 02:59:25;;;;;;;23.25;14.60;;;;;;;20.48;90.85;101177.53;5002181;28;20045;-79
2023/09/11 03:01:52;;;;;;;18.40;13.40;;;;;;;20.42;91.19;101177.94;5001602;28;20034;-79
2023/09/11 03:04:19;;;;;;;19.83;13.93;;;;;;;20.39;91.00;101178.16;5002517;28;20095;-78
2023/09/11 03:06:47;;;;;;;21.20;14.57;;;;;;;20.34;91.26;101174.91;5001762;28;20054;-78
2023/09/11 03:09:14;;;;;;;16.77;14.32;;;;;;;20.30;91.03;101174.25;5035815;28;20100;-78
2023/09/11 03:11:41;;;;;;;20.35;14.25;;;;;;;20.27;91.20;101176.28;5011491;28;20152;-79
2023/09/11 03:14:11;;;;;;;16.98;13.80;;;;;;;20.25;91.32;101178.19;5002762;28;20049;-79
2023/09/11 03:16:43;;;;;;;19.23;14.40;;;;;;;20.20;91.46;101162.44;5016997;28;20045;-79
2023/09/11 03:19:11;;;;;;;20.17;14.40;;;;;;;20.15;91.76;101173.44;5019549;28;20038;-80
2023/09/11 03:21:38;;;;;;;19.63;14.50;;;;;;;20.12;91.83;101154.91;5000234;28;20045;-79
2023/09/11 03:24:05;;;;;;;18.00;14.15;;;;;;;20.09;91.78;101160.50;5004983;28;20070;-79
2023/09/11 03:26:33;;;;;;;18.02;13.88;;;;;;;20.07;92.17;101158.84;5002561;28;20124;-80
2023/09/11 03:29:00;;;;;;;21.75;15.40;;;;;;;20.04;91.96;101154.56;5002362;28;20078;-79
2023/09/11 03:31:29;;;;;;;21.10;15.52;;;;;;;20.04;92.05;101162.59;5001188;28;20046;-79
2023/09/11 03:33:57;;;;;;;22.30;15.25;;;;;;;20.02;92.14;101153.81;5016290;28;20048;-79
2023/09/11 03:36:25;;;;;;;21.40;16.02;;;;;;;20.01;92.34;101155.63;5005486;28;20473;-79
2023/09/11 03:38:52;;;;;;;21.00;14.98;;;;;;;19.99;92.40;101152.19;5004869;28;20044;-79
2023/09/11 03:41:19;;;;;;;22.33;17.33;;;;;;;19.98;92.16;101150.47;5007448;28;20072;-79
2023/09/11 03:43:47;;;;;;;20.70;15.80;;;;;;;19.99;92.57;101143.31;5004979;28;20046;-79
2023/09/11 03:46:15;;;;;;;22.88;16.75;;;;;;;19.99;92.64;101151.34;4990171;28;20125;-79
2023/09/11 03:48:45;;;;;;;23.10;16.92;;;;;;;19.98;92.17;101149.63;5005863;28;20042;-79
2023/09/11 03:51:15;;;;;;;23.45;16.40;;;;;;;19.95;92.70;101145.31;4999073;28;20044;-79
2023/09/11 03:53:43;;;;;;;22.42;16.30;;;;;;;19.93;92.65;101143.69;5005907;28;20045;-79
2023/09/11 03:56:13;;;;;;;21.92;16.75;;;;;;;19.92;92.75;101141.97;4999227;28;20131;-79
2023/09/11 03:58:44;;;;;;;20.88;16.20;;;;;;;19.90;92.93;101136.75;5006227;28;20058;-80
2023/09/11 04:01:13;;;;;;;23.45;15.88;;;;;;;19.89;92.89;101137.69;5006659;28;20049;-79
2023/09/11 04:03:42;;;;;;;23.02;17.45;;;;;;;19.88;92.71;101135.97;5006260;28;20414;-79
2023/09/11 04:06:09;;;;;;;22.00;16.33;;;;;;;19.84;93.04;101135.28;5005042;28;20493;-78
2023/09/11 04:08:36;;;;;;;21.58;16.95;;;;;;;19.81;93.16;101135.47;5008532;28;20796;-78
2023/09/11 04:11:03;;;;;;;23.88;17.67;;;;;;;19.79;93.58;101133.88;5004259;28;20045;-77
2023/09/11 04:13:30;;;;;;;22.75;16.85;;;;;;;19.76;93.55;101129.59;5006282;28;20129;-78
2023/09/11 04:15:57;;;;;;;20.35;16.08;;;;;;;19.73;93.86;101126.25;4997118;28;20038;-78
2023/09/11 04:18:24;;;;;;;20.10;16.10;;;;;;;19.69;93.67;101123.75;5025963;28;20042;-78
2023/09/11 04:21:03;;;;;;;21.25;15.80;;;;;;;19.69;93.75;101120.22;5005057;28;20437;-78
2023/09/11 04:23:32;;;;;;;22.15;17.40;;;;;;;19.64;93.72;101125.88;5019604;28;20066;-78
2023/09/11 04:26:00;;;;;;;21.58;17.17;;;;;;;19.63;94.12;101121.50;5003854;28;20038;-78
2023/09/11 04:28:27;;;;;;;22.10;17.75;;;;;;;19.61;94.11;101120.72;5002878;28;20060;-78
2023/09/11 04:30:54;;;;;;;21.90;17.02;;;;;;;19.60;94.04;101120.81;5003618;28;20049;-77
2023/09/11 04:33:22;;;;;;;21.05;17.80;;;;;;;19.59;94.18;101113.75;4999705;28;20046;-77
2023/09/11 04:35:51;;;;;;;26.65;18.02;;;;;;;19.58;94.63;101115.56;5015784;28;20308;-77
2023/09/11 04:38:19;;;;;;;23.13;18.50;;;;;;;19.56;94.56;101117.47;5019774;28;20046;-77
2023/09/11 04:40:46;;;;;;;22.85;18.15;;;;;;;19.56;94.64;101112.13;4999587;28;20528;-74
2023/09/11 04:43:13;;;;;;;24.98;18.05;;;;;;;19.54;94.82;101111.38;4997644;28;20034;-74
2023/09/11 04:45:40;;;;;;;23.17;18.73;;;;;;;19.52;95.25;101111.47;5017809;28;20453;-74
2023/09/11 04:48:07;;;;;;;24.35;18.48;;;;;;;19.51;95.39;101107.06;5018991;28;20461;-74
2023/09/11 04:50:40;;;;;;;22.27;17.67;;;;;;;19.49;95.27;101105.47;4982877;28;20497;-73
2023/09/11 04:53:07;;;;;;;22.80;18.10;;;;;;;19.49;95.49;101103.63;4998161;28;20042;-73
2023/09/11 04:55:34;;;;;;;22.10;17.23;;;;;;;19.49;95.69;101106.31;5003463;28;20042;-73
2023/09/11 04:58:01;;;;;;;24.67;18.17;;;;;;;19.47;95.59;101105.56;5007954;28;20050;-73
2023/09/11 05:00:29;;;;;;;25.40;18.45;;;;;;;19.46;95.73;101102.97;5021172;28;20042;-73
2023/09/11 05:02:56;;;;;;;23.10;17.98;;;;;;;19.45;95.82;101112.84;4997423;28;20633;-73
2023/09/11 05:05:25;;;;;;;21.92;17.50;;;;;;;19.45;96.03;101111.94;5001942;28;20040;-73
2023/09/11 05:07:52;;;;;;;26.45;18.23;;;;;;;19.44;95.70;101111.09;5001225;28;20057;-73
2023/09/11 05:10:20;;;;;;;26.38;19.73;;;;;;;19.45;96.12;101114.63;5002140;28;20887;-73
2023/09/11 05:12:47;;;;;;;23.48;18.35;;;;;;;19.46;95.90;101119.03;5003057;28;20061;-73
2023/09/11 05:15:15;;;;;;;26.52;19.48;;;;;;;19.48;96.09;101120.66;5001709;28;20041;-73
2023/09/11 05:17:42;;;;;;;22.15;19.35;;;;;;;19.50;96.28;101112.53;5017938;28;20052;-73
2023/09/11 05:20:10;;;;;;;26.05;19.92;;;;;;;19.55;96.12;101123.78;5000142;28;20048;-73
2023/09/11 05:22:38;;;;;;;24.95;18.92;;;;;;;19.56;95.71;101117.47;4999170;28;20092;-73
2023/09/11 05:25:06;;;;;;;25.15;18.98;;;;;;;19.57;96.03;101121.88;4998161;28;20430;-73
2023/09/11 05:27:33;;;;;;;26.88;18.98;;;;;;;19.58;96.44;101117.41;5003053;28;20125;-73
2023/09/11 05:30:00;;;;;;;24.08;18.88;;;;;;;19.62;96.46;101119.78;5003405;28;20143;-73
2023/09/11 05:32:27;;;;;;;25.85;19.45;;;;;;;19.67;96.24;101127.50;5001457;28;20449;-73
2023/09/11 05:34:54;;;;;;;24.58;19.98;;;;;;;19.69;96.05;101123.75;4975043;28;20073;-73
2023/09/11 05:37:21;;;;;;;30.52;20.08;;;;;;;19.72;96.12;101130.72;4997082;28;20069;-73
2023/09/11 05:39:48;;;;;;;24.50;18.65;;;;;;;19.73;96.41;101121.75;4999881;28;20038;-74
2023/09/11 05:42:15;;;;;;;25.35;19.75;;;;;;;19.77;95.73;101122.41;5002323;28;20040;-75
2023/09/11 05:44:43;;;;;;;25.95;18.88;;;;;;;19.79;95.94;101120.50;5002209;28;20042;-75
2023/09/11 05:47:10;;;;;;;28.58;19.30;;;;;;;19.82;96.05;101131.84;4996499;28;20449;-75
2023/09/11 05:49:38;;;;;;;23.50;17.58;;;;;;;19.88;95.99;101135.13;4999953;28;20053;-75
2023/09/11 05:52:06;;;;;;;24.48;19.45;;;;;;;19.93;96.19;101123.19;4995894;28;20088;-75
2023/09/11 05:54:33;;;;;;;24.73;17.58;;;;;;;19.98;96.31;101137.09;4997662;28;20037;-75
2023/09/11 05:57:02;;;;;;;24.58;18.48;;;;;;;20.05;95.63;101134.00;5002380;28;20125;-75
2023/09/11 05:59:29;;;;;;;25.92;17.75;;;;;;;20.09;95.38;101133.72;4992957;28;20566;-75
2023/09/11 06:01:57;;;;;;;21.58;16.55;;;;;;;20.14;95.46;101128.06;5002003;28;20074;-75
2023/09/11 06:04:24;;;;;;;22.73;17.73;;;;;;;20.21;95.60;101131.16;5004571;28;20703;-75
2023/09/11 06:06:51;;;;;;;24.67;17.75;;;;;;;20.28;95.29;101130.66;5004229;28;20046;-75
2023/09/11 06:09:18;;;;;;;25.00;18.00;;;;;;;20.35;95.21;101135.63;5005141;28;20042;-75
2023/09/11 06:11:45;;;;;;;22.48;17.10;;;;;;;20.41;95.45;101129.84;5001453;28;20042;-75
2023/09/11 06:14:13;;;;;;;22.35;17.52;;;;;;;20.50;95.05;101137.25;5009910;28;20034;-75
2023/09/11 06:16:40;;;;;;;20.92;17.23;;;;;;;20.59;94.65;101133.09;5004249;28;20096;-75
2023/09/11 06:19:07;;;;;;;22.17;16.77;;;;;;;20.68;94.58;101145.00;5004810;28;20053;-75
2023/09/11 06:21:35;;;;;;;23.20;15.70;;;;;;;20.74;94.58;101134.75;5004233;28;20125;-75
2023/09/11 06:24:04;;;;;;;20.00;15.20;;;;;;;20.84;94.68;101139.47;5003498;28;20461;-75
2023/09/11 06:26:31;;;;;;;21.73;16.33;;;;;;;20.94;94.34;101135.19;5020220;28;20046;-74
2023/09/11 06:28:58;;;;;;;19.20;15.18;;;;;;;21.03;93.63;101144.44;5004103;28;20073;-75
2023/09/11 06:31:25;;;;;;;22.00;14.68;;;;;;;21.11;93.61;101144.75;4998809;28;20072;-75
2023/09/11 06:33:53;;;;;;;21.60;14.35;;;;;;;21.21;92.77;101145.81;4999407;28;20157;-75
2023/09/11 06:36:20;;;;;;;22.40;14.98;;;;;;;21.28;92.63;101138.19;5021773;28;20046;-75
2023/09/11 06:38:47;;;;;;;23.52;13.98;;;;;;;21.36;92.50;101143.88;4999511;28;20046;-75
2023/09/11 06:41:14;;;;;;;21.20;13.88;;;;;;;21.46;92.12;101144.06;5007764;28;20045;-75
2023/09/11 06:43:42;;;;;;;22.50;14.80;;;;;;;21.55;91.25;101139.84;5003706;28;20069;-75
2023/09/11 06:46:09;;;;;;;20.52;14.00;;;;;;;21.63;90.93;101134.81;5002183;28;20058;-75
2023/09/11 06:48:36;;;;;;;19.23;13.98;;;;;;;21.71;90.82;101142.31;4988819;28;20129;-75
2023/09/11 06:51:03;;;;;;;19.13;14.27;;;;;;;21.77;90.19;101146.38;5003538;28;20052;-75
2023/09/11 06:53:31;;;;;;;29.10;14.65;;;;;;;21.82;90.47;101146.91;5004932;28;20092;-75
2023/09/11 06:55:58;;;;;;;19.15;13.60;;;;;;;21.90;90.01;101146.31;5001438;28;20041;-75
2023/09/11 06:58:25;;;;;;;18.83;12.65;;;;;;;21.95;89.47;101149.53;5002946;28;20100;-75
2023/09/11 07:00:52;;;;;;;21.77;13.68;;;;;;;22.03;88.83;101147.16;5004932;28;20542;-75
2023/09/11 07:03:20;;;;;;;21.20;14.40;;;;;;;22.13;88.46;101141.97;5003294;28;20325;-75
2023/09/11 07:05:51;;;;;;;17.10;14.55;;;;;;;22.21;87.47;101142.25;5007069;28;20108;-75
2023/09/11 07:08:18;;;;;;;23.33;15.55;;;;;;;22.31;87.22;101135.22;5023173;28;20112;-75
2023/09/11 07:10:50;;;;;;;22.60;15.48;;;;;;;22.42;86.94;101139.78;5008612;28;20121;-75
2023/09/11 07:13:17;;;;;;;26.33;15.85;;;;;;;22.55;86.84;101138.84;5008373;28;20046;-75
2023/09/11 07:16:00;;;;;;;22.35;14.85;;;;;;;22.68;86.06;101144.13;5022661;28;20457;-75
2023/09/11 07:18:27;;;;;;;20.40;14.57;;;;;;;22.77;85.61;101138.03;5022193;28;20056;-76
2023/09/11 07:20:55;;;;;;;22.08;14.00;;;;;;;22.89;85.41;101137.09;5008481;28;20034;-75
2023/09/11 07:23:23;;;;;;;23.60;13.18;;;;;;;23.01;84.61;101140.66;5007496;28;20045;-75
2023/09/11 07:25:51;;;;;;;22.05;13.20;;;;;;;23.09;84.31;101134.69;5000672;28;20502;-75
2023/09/11 07:28:18;;;;;;;19.55;11.60;;;;;;;23.15;83.93;101128.81;5008230;28;20060;-75
2023/09/11 07:30:45;;;;;;;22.05;13.48;;;;;;;23.21;83.76;101127.50;5023020;28;20042;-75
2023/09/11 07:33:12;;;;;;;17.27;11.25;;;;;;;23.29;83.15;101130.44;5008843;28;20045;-75
2023/09/11 07:35:40;;;;;;;18.90;12.32;;;;;;;23.38;82.32;101124.34;5008584;28;20087;-76
2023/09/11 07:38:07;;;;;;;22.27;11.73;;;;;;;23.48;81.37;101128.97;5016886;28;20076;-75
2023/09/11 07:40:34;;;;;;;19.45;11.63;;;;;;;23.55;80.83;101131.00;5006870;28;20046;-75
2023/09/11 07:43:01;;;;;;;19.90;10.82;;;;;;;23.65;79.24;101132.97;5008208;28;20446;-75
2023/09/11 07:45:28;;;;;;;20.20;10.13;;;;;;;23.73;78.27;101127.81;5005586;28;20050;-75
2023/09/11 07:47:55;;;;;;;16.63;10.38;;;;;;;23.82;76.61;101137.84;4999433;28;20034;-75
2023/09/11 07:50:23;;;;;;;19.98;10.20;;;;;;;23.89;76.22;101149.81;5022285;28;20056;-75
2023/09/11 07:52:50;;;;;;;21.70;10.43;;;;;;;24.00;77.05;101145.41;5007018;28;20037;-75
2023/09/11 07:55:18;;;;;;;20.63;10.43;;;;;;;24.13;76.56;101153.31;5005729;28;20054;-75
2023/09/11 07:57:46;;;;;;;19.20;9.82;;;;;;;24.25;74.77;101144.22;5005950;28;20041;-75
2023/09/11 08:00:14;;;;;;;18.52;10.25;;;;;;;24.32;73.75;101136.47;5006524;28;20057;-75
2023/09/11 08:02:41;;;;;;;17.98;9.65;;;;;;;24.42;74.00;101132.03;5001236;28;20034;-75
2023/09/11 08:05:09;;;;;;;14.77;9.15;;;;;;;24.51;72.85;101130.41;5001862;28;20546;-75
2023/09/11 08:07:36;;;;;;;25.50;10.40;;;;;;;24.65;72.64;101142.69;5007850;28;20042;-75
2023/09/11 08:10:03;;;;;;;16.70;8.85;;;;;;;24.62;73.28;101141.09;5003476;28;20498;-75
2023/09/11 08:12:33;;;;;;;30.77;10.52;;;;;;;24.68;72.24;101134.34;5003771;28;20046;-75
2023/09/11 08:15:00;;;;;;;19.60;9.55;;;;;;;24.76;72.16;101139.09;5001825;28;20618;-75
2023/09/11 08:17:29;;;;;;;19.67;9.98;;;;;;;24.81;71.31;101140.41;5005786;28;20397;-75
2023/09/11 08:19:57;;;;;;;17.27;10.15;;;;;;;24.86;70.94;101142.69;5005779;28;20573;-74
2023/09/11 08:22:24;;;;;;;19.90;10.45;;;;;;;24.92;71.22;101152.09;5004519;28;20065;-74
2023/09/11 08:24:51;;;;;;;20.17;9.93;;;;;;;24.98;71.13;101142.63;5005574;28;20045;-74
2023/09/11 08:27:20;;;;;;;13.95;8.45;;;;;;;25.06;71.24;101149.06;5004795;28;20568;-74
2023/09/11 08:29:47;;;;;;;34.35;10.20;;;;;;;25.11;70.35;101138.72;5002511;28;20053;-73
2023/09/11 08:32:14;;;;;;;15.38;10.02;;;;;;;25.20;70.52;101146.97;5004877;28;20087;-74
2023/09/11 08:34:41;;;;;;;22.35;10.55;;;;;;;25.26;70.17;101146.47;5005598;28;20046;-74
2023/09/11 08:37:09;;;;;;;17.45;10.07;;;;;;;25.34;69.29;101153.84;5004099;28;20241;-74
2023/09/11 08:39:36;;;;;;;28.85;9.80;;;;;;;25.40;69.21;101170.38;5003232;28;20309;-74
2023/09/11 08:42:04;;;;;;;29.85;11.52;;;;;;;25.48;69.21;101160.78;5003923;28;20050;-74
2023/09/11 08:44:32;;;;;;;16.10;9.48;;;;;;;25.56;68.17;101163.66;5002741;28;20525;-74
2023/09/11 08:47:03;;;;;;;23.58;9.90;;;;;;;25.62;67.69;101160.38;5009272;28;20046;-74
2023/09/11 08:49:37;;;;;;;20.90;9.63;;;;;;;25.68;67.43;101164.38;5017899;28;20045;-74
2023/09/11 08:52:09;;;;;;;18.83;9.15;;;;;;;25.71;67.10;101169.50;5002034;28;20042;-74
2023/09/11 08:54:42;;;;;;;16.27;9.30;;;;;;;25.74;67.47;101162.00;5005668;28;20152;-74
2023/09/11 08:57:15;;;;;;;25.90;10.82;;;;;;;25.79;66.95;101158.03;5009001;28;20041;-74
2023/09/11 08:59:46;;;;;;;36.83;10.50;;;;;;;25.83;67.62;101160.31;5007023;28;20048;-74
2023/09/11 09:02:15;;;;;;;18.02;9.77;;;;;;;25.88;67.58;101155.34;5011397;28;20554;-74
2023/09/11 09:04:43;;;;;;;15.40;9.13;;;;;;;25.95;67.75;101157.47;5016181;28;20120;-74
2023/09/11 09:07:11;;;;;;;23.80;8.95;;;;;;;26.03;67.75;101152.25;5006523;28;20415;-74
2023/09/11 09:09:39;;;;;;;13.88;9.93;;;;;;;26.12;67.46;101159.53;5003392;28;20033;-74
2023/09/11 09:12:07;;;;;;;15.43;8.57;;;;;;;26.20;65.39;101162.38;5005751;28;20093;-74
2023/09/11 09:14:38;;;;;;;15.00;9.68;;;;;;;26.28;64.58;101155.41;5019113;28;20042;-74
2023/09/11 09:17:06;;;;;;;17.00;8.73;;;;;;;26.32;65.03;101163.09;5003840;28;20493;-74
2023/09/11 09:19:33;;;;;;;17.55;9.82;;;;;;;26.41;65.03;101158.69;5004239;28;20041;-74
2023/09/11 09:22:06;;;;;;;20.00;9.75;;;;;;;26.49;64.47;101160.69;5003910;28;20050;-75
2023/09/11 09:24:45;;;;;;;20.60;11.25;;;;;;;26.56;65.15;101156.41;5002669;28;20252;-74
2023/09/11 09:27:12;;;;;;;15.05;9.90;;;;;;;26.65;63.56;101165.50;5018776;28;20061;-74
2023/09/11 09:29:39;;;;;;;16.23;10.23;;;;;;;26.70;63.64;101159.66;5002788;28;20089;-74
2023/09/11 09:32:09;;;;;;;19.60;10.73;;;;;;;26.73;63.56;101156.66;5003924;28;20101;-74
2023/09/11 09:34:51;;;;;;;15.80;10.40;;;;;;;26.77;62.63;101152.66;5003440;28;20046;-74
2023/09/11 09:37:20;;;;;;;16.65;11.02;;;;;;;26.83;62.24;101162.09;5010440;28;20088;-75
2023/09/11 09:39:49;;;;;;;17.10;10.48;;;;;;;26.91;62.44;101165.75;5005099;28;20469;-74
2023/09/11 09:42:18;;;;;;;15.57;10.32;;;;;;;26.99;62.27;101156.06;5006637;28;20100;-74
2023/09/11 09:44:55;;;;;;;16.05;11.65;;;;;;;27.05;61.49;101147.34;5016694;28;20049;-74
2023/09/11 09:47:23;;;;;;;21.75;11.85;;;;;;;27.08;62.51;101144.38;5011249;28;20096;-75
2023/09/11 09:49:54;;;;;;;21.27;11.52;;;;;;;27.15;62.00;101150.03;5006563;28;20044;-74
2023/09/11 09:52:26;;;;;;;18.92;11.35;;;;;;;27.23;61.59;101144.72;5004731;28;20077;-75
2023/09/11 09:55:02;;;;;;;16.27;11.52;;;;;;;27.28;61.40;101143.28;5018297;28;20412;-74
2023/09/11 09:57:29;;;;;;;16.42;11.98;;;;;;;27.32;61.26;101143.00;5003925;28;20042;-74
2023/09/11 10:00:00;;;;;;;29.88;12.15;;;;;;;27.37;61.10;101137.97;5005500;28;20127;-74
2023/09/11 10:02:34;;;;;;;18.75;11.65;;;;;;;27.45;60.39;101146.22;5002597;28;20045;-75
2023/09/11 10:05:05;;;;;;;21.00;11.82;;;;;;;27.50;60.08;101149.34;5005282;28;20046;-74
2023/09/11 10:07:39;;;;;;;15.07;11.68;;;;;;;27.59;60.33;101155.69;5004575;28;20053;-74
2023/09/11 10:10:30;;;;;;;23.65;11.88;;;;;;;27.68;59.17;101152.06;5013182;28;20050;-75
2023/09/11 10:13:00;;;;;;;16.48;10.93;;;;;;;27.77;58.91;101147.63;4993598;28;20034;-74
2023/09/11 10:15:29;;;;;;;25.80;12.18;;;;;;;27.87;58.64;101148.41;5007903;28;20050;-75
2023/09/11 10:17:57;;;;;;;17.55;11.57;;;;;;;27.94;58.38;101142.38;5011305;28;20065;-75
2023/09/11 10:20:26;;;;;;;22.52;11.65;;;;;;;28.03;58.19;101142.31;5005780;28;20047;-75
2023/09/11 10:22:55;;;;;;;16.70;10.30;;;;;;;28.11;57.25;101135.28;5004992;28;20124;-74
2023/09/11 10:25:24;;;;;;;12.75;9.93;;;;;;;28.13;57.01;101144.97;5002458;28;20532;-74
2023/09/11 10:28:02;;;;;;;19.65;11.73;;;;;;;28.20;56.52;101139.78;5001051;28;20149;-75
2023/09/11 10:30:48;;;;;;;23.42;11.77;;;;;;;28.24;56.02;101140.31;5004499;28;20506;-75
2023/09/11 10:33:33;;;;;;;17.33;9.77;;;;;;;28.27;56.65;101134.59;5004150;28;20037;-75
2023/09/11 10:36:10;;;;;;;19.17;9.85;;;;;;;28.34;57.21;101132.94;5001178;28;20049;-75
2023/09/11 10:38:38;;;;;;;14.90;8.80;;;;;;;28.45;56.76;101134.59;5005302;28;20096;-74
2023/09/11 10:41:08;;;;;;;16.42;10.10;;;;;;;28.51;56.42;101134.81;5005009;28;20045;-75
2023/09/11 10:43:35;;;;;;;14.80;7.32;;;;;;;28.60;55.08;101140.28;5006959;28;20054;-75
2023/09/11 10:46:39;;;;;;;16.48;7.50;;;;;;;28.66;54.83;101134.22;5008943;28;20042;-75
2023/09/11 10:49:18;;;;;;;;;;;;;;;28.72;55.81;101133.63;5007072;28;20062;-75
2023/09/11 10:51:47;;;;;;;13.52;8.30;;;;;;;28.83;55.83;101127.06;5002133;28;19921;-75
2023/09/11 10:54:20;;;;;;;21.95;8.48;;;;;;;28.93;55.39;101130.53;5009306;28;20038;-74
2023/09/11 10:56:55;;;;;;;27.58;7.10;;;;;;;29.03;55.01;101129.56;5003946;28;20407;-75
2023/09/11 10:59:23;;;;;;;15.38;5.97;;;;;;;29.16;53.87;101129.13;5006247;28;21286;-74
2023/09/11 11:01:52;;;;;;;12.00;5.63;;;;;;;29.19;51.73;101129.66;5009915;28;20044;-75
2023/09/11 11:04:23;;;;;;;11.73;7.95;;;;;;;29.21;51.51;101126.78;5008374;28;20038;-75
2023/09/11 11:06:55;;;;;;;12.52;7.32;;;;;;;29.23;52.03;101125.59;5009271;28;20041;-75
2023/09/11 11:09:34;;;;;;;12.02;6.70;;;;;;;29.33;52.05;101122.81;5008581;28;20052;-75
2023/09/11 11:12:06;;;;;;;9.40;6.68;;;;;;;29.40;52.37;101121.13;5000667;28;20115;-75
2023/09/11 11:14:34;;;;;;;16.10;6.75;;;;;;;29.51;51.40;101119.97;5009377;28;20479;-75
2023/09/11 11:17:12;;;;;;;8.48;5.82;;;;;;;29.59;50.80;101121.88;5002185;28;20566;-74
2023/09/11 11:19:58;;;;;;;12.57;6.25;;;;;;;29.64;49.70;101111.38;4997374;28;20045;-75